createdAt,value
2018-03-27T00:02:04.245Z,43.77
2018-03-27T00:04:31.832Z,44.60
2018-03-27T00:06:59.413Z,44.93
2018-03-27T00:09:27.034Z,43.10
2018-03-27T00:11:54.714Z,43.83
2018-03-27T00:14:22.310Z,42.53
2018-03-27T00:16:49.942Z,42.17
2018-03-27T00:19:17.531Z,41.47
2018-03-27T00:21:45.138Z,46.53
2018-03-27T00:24:12.772Z,42.03
2018-03-27T00:26:52.080Z,41.10
2018-03-27T00:29:31.507Z,42.23
2018-03-27T00:32:10.698Z,48.00
2018-03-27T00:34:49.999Z,45.10
2018-03-27T00:37:29.308Z,39.60
2018-03-27T00:40:08.579Z,42.00
2018-03-27T00:42:43.700Z,42.87
2018-03-27T00:45:11.327Z,41.37
2018-03-27T00:47:38.943Z,42.17
2018-03-27T00:50:06.534Z,40.50
2018-03-27T00:52:34.180Z,45.53
2018-03-27T00:55:01.775Z,40.57
2018-03-27T00:57:29.371Z,46.47
2018-03-27T00:59:57.009Z,45.30
2018-03-27T01:02:24.616Z,44.90
2018-03-27T01:04:52.215Z,46.50
2018-03-27T01:07:19.841Z,43.70
2018-03-27T01:09:47.438Z,42.60
2018-03-27T01:12:15.046Z,49.97
2018-03-27T01:14:42.695Z,47.23
2018-03-27T01:17:10.288Z,40.57
2018-03-27T01:19:37.867Z,42.30
2018-03-27T01:22:05.509Z,43.00
2018-03-27T01:24:33.095Z,40.83
2018-03-27T01:27:00.682Z,40.00
2018-03-27T01:29:28.306Z,37.97
2018-03-27T01:31:55.900Z,38.77
2018-03-27T01:34:23.497Z,36.30
2018-03-27T01:36:51.122Z,42.30
2018-03-27T01:39:18.713Z,41.93
2018-03-27T01:41:46.298Z,37.67
2018-03-27T01:44:13.907Z,40.27
2018-03-27T01:46:41.490Z,37.70
2018-03-27T01:49:09.076Z,40.93
2018-03-27T01:51:36.707Z,39.37
2018-03-27T01:54:04.301Z,38.97
2018-03-27T01:56:31.895Z,40.83
2018-03-27T01:58:59.534Z,39.20
2018-03-27T02:01:27.131Z,38.17
2018-03-27T02:03:54.729Z,36.60
2018-03-27T02:06:22.357Z,39.03
2018-03-27T02:08:49.947Z,35.07
2018-03-27T02:11:22.969Z,38.63
2018-03-27T02:13:56.023Z,36.47
2018-03-27T02:16:29.307Z,35.60
2018-03-27T02:19:02.372Z,36.00
2018-03-27T02:21:29.397Z,36.00
2018-03-27T02:23:59.432Z,37.30
2018-03-27T02:26:27.018Z,36.10
2018-03-27T02:28:54.650Z,37.27
2018-03-27T02:31:22.243Z,41.07
2018-03-27T02:33:49.842Z,36.90
2018-03-27T02:36:17.481Z,38.37
2018-03-27T02:38:45.069Z,32.57
2018-03-27T02:41:12.660Z,39.37
2018-03-27T02:43:40.324Z,36.90
2018-03-27T02:46:07.952Z,35.07
2018-03-27T02:48:35.593Z,35.17
2018-03-27T02:51:03.254Z,36.50
2018-03-27T02:53:30.880Z,36.10
2018-03-27T02:55:58.517Z,38.13
2018-03-27T02:58:26.188Z,35.10
2018-03-27T03:00:53.842Z,29.83
2018-03-27T03:03:21.510Z,34.33
2018-03-27T03:05:49.138Z,34.50
2018-03-27T03:08:16.723Z,32.67
2018-03-27T03:10:44.350Z,30.87
2018-03-27T03:13:11.979Z,35.37
2018-03-27T03:15:39.562Z,39.87
2018-03-27T03:18:07.153Z,36.03
2018-03-27T03:20:34.764Z,35.37
2018-03-27T03:23:02.354Z,32.80
2018-03-27T03:25:29.929Z,35.47
2018-03-27T03:27:57.557Z,35.60
2018-03-27T03:30:25.151Z,38.40
2018-03-27T03:32:52.755Z,38.13
2018-03-27T03:35:20.379Z,37.83
2018-03-27T03:37:47.958Z,35.33
2018-03-27T03:40:15.555Z,35.97
2018-03-27T03:42:43.214Z,33.00
2018-03-27T03:45:10.787Z,35.60
2018-03-27T03:47:38.369Z,34.20
2018-03-27T03:50:05.998Z,36.03
2018-03-27T03:52:33.582Z,35.20
2018-03-27T03:55:01.181Z,32.87
2018-03-27T03:57:28.813Z,34.10
2018-03-27T03:59:56.393Z,35.17
2018-03-27T04:02:23.978Z,34.47
2018-03-27T04:04:51.605Z,33.20
2018-03-27T04:07:19.189Z,35.30
2018-03-27T04:09:46.768Z,37.47
2018-03-27T04:12:14.396Z,36.87
2018-03-27T04:14:41.977Z,36.77
2018-03-27T04:17:09.564Z,38.70
2018-03-27T04:19:37.174Z,35.57
2018-03-27T04:22:04.800Z,36.90
2018-03-27T04:24:32.405Z,40.33
2018-03-27T04:26:59.994Z,41.27
2018-03-27T04:29:27.619Z,41.57
2018-03-27T04:31:55.203Z,41.57
2018-03-27T04:34:22.793Z,37.67
2018-03-27T04:36:50.414Z,39.17
2018-03-27T04:39:18.039Z,38.63
2018-03-27T04:41:45.631Z,39.50
2018-03-27T04:44:13.260Z,40.90
2018-03-27T04:46:40.855Z,39.27
2018-03-27T04:49:08.439Z,39.90
2018-03-27T04:51:36.118Z,36.40
2018-03-27T04:54:03.718Z,36.33
2018-03-27T04:56:31.302Z,39.83
2018-03-27T04:58:58.931Z,37.67
2018-03-27T05:01:26.525Z,34.43
2018-03-27T05:03:54.115Z,37.40
2018-03-27T05:06:21.742Z,32.63
2018-03-27T05:08:49.331Z,36.13
2018-03-27T05:11:16.929Z,40.07
2018-03-27T05:13:44.608Z,38.90
2018-03-27T05:16:12.185Z,35.57
2018-03-27T05:18:39.771Z,36.67
2018-03-27T05:21:07.391Z,36.23
2018-03-27T05:23:34.998Z,36.50
2018-03-27T05:26:02.588Z,38.07
2018-03-27T05:28:30.234Z,37.07
2018-03-27T05:30:57.818Z,37.53
2018-03-27T05:33:25.406Z,38.10
2018-03-27T05:35:53.056Z,38.70
2018-03-27T05:38:20.654Z,37.40
2018-03-27T05:40:48.228Z,36.90
2018-03-27T05:43:15.850Z,38.80
2018-03-27T05:45:43.437Z,41.87
2018-03-27T05:48:11.032Z,37.20
2018-03-27T05:50:38.666Z,38.93
2018-03-27T05:53:06.253Z,38.57
2018-03-27T05:55:33.839Z,36.40
2018-03-27T05:58:01.480Z,41.93
2018-03-27T06:00:29.118Z,39.50
2018-03-27T06:02:56.710Z,42.20
2018-03-27T06:05:24.330Z,42.67
2018-03-27T06:07:51.917Z,39.30
2018-03-27T06:10:19.496Z,41.40
2018-03-27T06:12:47.131Z,43.67
2018-03-27T06:15:14.718Z,48.30
2018-03-27T06:17:42.317Z,44.97
2018-03-27T06:20:09.961Z,39.60
2018-03-27T06:22:37.546Z,38.33
2018-03-27T06:25:05.137Z,36.70
2018-03-27T06:27:32.757Z,33.00
2018-03-27T06:30:00.387Z,35.97
2018-03-27T06:32:27.976Z,32.83
2018-03-27T06:34:55.609Z,30.60
2018-03-27T06:37:23.190Z,32.90
2018-03-27T06:39:50.769Z,34.47
2018-03-27T06:42:18.418Z,34.97
2018-03-27T06:44:46.011Z,31.87
2018-03-27T06:47:13.595Z,33.70
2018-03-27T06:49:41.224Z,32.60
2018-03-27T06:52:08.799Z,30.77
2018-03-27T06:54:36.389Z,31.87
2018-03-27T06:57:04.013Z,32.73
2018-03-27T06:59:31.582Z,30.07
2018-03-27T07:01:59.178Z,35.50
2018-03-27T07:04:26.802Z,35.80
2018-03-27T07:06:54.432Z,45.10
2018-03-27T07:09:22.036Z,51.83
2018-03-27T07:11:49.668Z,32.30
2018-03-27T07:14:17.261Z,28.57
2018-03-27T07:16:44.859Z,33.13
2018-03-27T07:19:12.488Z,27.83
2018-03-27T07:21:40.078Z,28.13
2018-03-27T07:24:07.758Z,26.90
2018-03-27T07:26:35.382Z,27.90
2018-03-27T07:29:02.970Z,25.60
2018-03-27T07:31:30.564Z,25.07
2018-03-27T07:33:58.190Z,28.13
2018-03-27T07:36:25.781Z,26.97
2018-03-27T07:38:53.374Z,24.97
2018-03-27T07:41:21.014Z,23.80
2018-03-27T07:43:48.596Z,28.70
2018-03-27T07:46:16.168Z,25.00
2018-03-27T07:48:43.794Z,26.13
2018-03-27T07:51:11.382Z,27.17
2018-03-27T07:53:38.952Z,28.53
2018-03-27T07:56:06.581Z,26.63
2018-03-27T07:58:34.174Z,23.10
2018-03-27T08:01:01.760Z,23.90
2018-03-27T08:03:29.425Z,23.10
2018-03-27T08:05:57.028Z,29.50
2018-03-27T08:08:24.641Z,25.93
2018-03-27T08:10:52.272Z,24.53
2018-03-27T08:13:19.855Z,24.30
2018-03-27T08:15:47.439Z,22.57
2018-03-27T08:18:15.066Z,18.80
2018-03-27T08:20:42.662Z,20.47
2018-03-27T08:23:10.338Z,20.00
2018-03-27T08:25:38.058Z,22.90
2018-03-27T08:28:05.671Z,22.47
2018-03-27T08:30:33.338Z,19.50
2018-03-27T08:33:00.948Z,19.57
2018-03-27T08:35:28.530Z,18.13
2018-03-27T08:37:56.193Z,20.47
2018-03-27T08:40:23.813Z,23.13
2018-03-27T08:42:51.428Z,20.37
2018-03-27T08:45:19.019Z,22.20
2018-03-27T08:47:46.657Z,27.80
2018-03-27T08:50:14.331Z,24.73
2018-03-27T08:52:41.969Z,24.90
2018-03-27T08:55:09.661Z,34.00
2018-03-27T08:57:37.266Z,26.17
2018-03-27T09:00:04.900Z,17.87
2018-03-27T09:02:32.541Z,19.80
2018-03-27T09:05:00.142Z,22.10
2018-03-27T09:07:27.758Z,20.50
2018-03-27T09:09:55.373Z,17.30
2018-03-27T09:12:22.993Z,18.90
2018-03-27T09:14:50.577Z,26.13
2018-03-27T09:17:18.191Z,25.70
2018-03-27T09:19:45.774Z,22.00
2018-03-27T09:22:13.342Z,21.80
2018-03-27T09:24:40.958Z,17.83
2018-03-27T09:27:08.532Z,17.80
2018-03-27T09:29:36.109Z,18.20
2018-03-27T09:32:03.748Z,22.77
2018-03-27T09:34:31.351Z,21.43
2018-03-27T09:36:58.930Z,18.60
2018-03-27T09:39:26.523Z,20.13
2018-03-27T09:41:54.094Z,16.97
2018-03-27T09:44:21.677Z,18.60
2018-03-27T09:46:49.291Z,17.70
2018-03-27T09:49:16.858Z,15.87
2018-03-27T09:51:44.433Z,19.93
2018-03-27T09:54:12.065Z,25.40
2018-03-27T09:56:39.632Z,25.20
2018-03-27T09:59:07.214Z,22.17
2018-03-27T10:01:39.656Z,26.43
2018-03-27T10:04:07.249Z,21.50
2018-03-27T10:06:34.821Z,20.33
2018-03-27T10:09:02.445Z,25.43
2018-03-27T10:11:30.766Z,23.77
2018-03-27T10:13:58.346Z,33.50
2018-03-27T10:16:25.963Z,21.60
2018-03-27T10:18:53.550Z,24.93
2018-03-27T10:21:21.125Z,22.03
2018-03-27T10:23:48.737Z,25.30
2018-03-27T10:26:16.305Z,26.27
2018-03-27T10:28:44.795Z,21.47
2018-03-27T10:31:12.502Z,26.30
2018-03-27T10:33:40.077Z,19.20
2018-03-27T10:36:07.706Z,17.80
2018-03-27T10:38:36.114Z,22.60
2018-03-27T10:41:03.691Z,22.33
2018-03-27T10:43:31.283Z,20.37
2018-03-27T10:45:58.912Z,21.43
2018-03-27T10:48:26.478Z,20.30
2018-03-27T10:50:54.055Z,27.67
2018-03-27T10:53:21.672Z,21.60
2018-03-27T10:55:49.233Z,21.13
2018-03-27T10:58:16.795Z,20.50
2018-03-27T11:00:44.415Z,17.00
2018-03-27T11:03:11.980Z,18.87
2018-03-27T11:05:39.574Z,22.63
2018-03-27T11:08:07.203Z,22.03
2018-03-27T11:10:34.780Z,22.97
2018-03-27T11:13:02.370Z,20.57
2018-03-27T11:15:30.009Z,22.57
2018-03-27T11:17:57.571Z,17.80
2018-03-27T11:20:25.141Z,19.40
2018-03-27T11:22:52.749Z,17.47
2018-03-27T11:25:20.345Z,17.10
2018-03-27T11:27:47.942Z,13.70
2018-03-27T11:30:15.552Z,11.33
2018-03-27T11:32:43.126Z,10.07
2018-03-27T11:35:10.703Z,11.23
2018-03-27T11:37:38.316Z,10.97
2018-03-27T11:40:05.996Z,9.33
2018-03-27T11:42:33.604Z,9.10
2018-03-27T11:45:01.223Z,10.90
2018-03-27T11:47:28.793Z,12.93
2018-03-27T11:49:56.365Z,8.93
2018-03-27T11:52:23.977Z,7.50
2018-03-27T11:54:51.588Z,8.90
2018-03-27T11:57:19.158Z,8.10
2018-03-27T11:59:46.768Z,11.50
2018-03-27T12:02:14.394Z,9.63
2018-03-27T12:04:41.989Z,10.20
2018-03-27T12:07:09.662Z,19.73
2018-03-27T12:09:37.242Z,11.33
2018-03-27T12:12:04.827Z,13.10
2018-03-27T12:14:32.441Z,19.73
2018-03-27T12:17:00.026Z,12.43
2018-03-27T12:19:27.600Z,15.77
2018-03-27T12:21:55.210Z,14.30
2018-03-27T12:24:22.795Z,14.80
2018-03-27T12:26:50.408Z,13.37
2018-03-27T12:29:18.018Z,14.30
2018-03-27T12:31:45.632Z,17.20
2018-03-27T12:34:13.240Z,15.93
2018-03-27T12:36:40.861Z,6.10
2018-03-27T12:39:08.441Z,14.07
2018-03-27T12:41:36.011Z,10.03
2018-03-27T12:44:03.627Z,11.70
2018-03-27T12:46:31.202Z,11.90
2018-03-27T12:48:58.778Z,7.33
2018-03-27T12:51:26.414Z,7.90
2018-03-27T12:53:53.984Z,8.50
2018-03-27T12:56:21.569Z,8.47
2018-03-27T12:58:49.197Z,8.10
2018-03-27T13:01:16.779Z,9.13
2018-03-27T13:03:44.361Z,9.87
2018-03-27T13:06:11.982Z,11.20
2018-03-27T13:08:39.562Z,11.70
2018-03-27T13:11:07.144Z,24.77
2018-03-27T13:13:34.759Z,17.90
2018-03-27T13:16:02.338Z,9.67
2018-03-27T13:18:29.930Z,13.50
2018-03-27T13:20:57.549Z,13.23
2018-03-27T13:23:25.142Z,15.57
2018-03-27T13:25:52.738Z,16.30
2018-03-27T13:28:20.366Z,16.23
2018-03-27T13:30:47.960Z,13.23
2018-03-27T13:33:15.544Z,11.20
2018-03-27T13:35:43.213Z,12.60
2018-03-27T13:38:10.803Z,14.73
2018-03-27T13:40:38.392Z,14.57
2018-03-27T13:43:06.007Z,19.53
2018-03-27T13:45:33.610Z,16.10
2018-03-27T13:48:01.195Z,14.47
2018-03-27T13:50:28.822Z,26.90
2018-03-27T13:52:56.416Z,34.00
2018-03-27T13:55:24.006Z,30.13
2018-03-27T13:57:51.633Z,37.63
2018-03-27T14:00:19.250Z,86.70
2018-03-27T14:02:46.839Z,52.60
2018-03-27T14:05:14.551Z,55.40
2018-03-27T14:07:42.130Z,32.03
2018-03-27T14:10:09.712Z,31.80
2018-03-27T14:12:37.326Z,29.83
2018-03-27T14:15:04.909Z,32.60
2018-03-27T14:17:32.501Z,34.40
2018-03-27T14:20:00.136Z,33.07
2018-03-27T14:22:27.740Z,36.27
2018-03-27T14:24:55.326Z,27.43
2018-03-27T14:27:22.960Z,42.20
2018-03-27T14:29:50.547Z,44.77
2018-03-27T14:32:18.130Z,42.17
2018-03-27T14:34:45.747Z,41.03
2018-03-27T14:37:13.383Z,47.53
2018-03-27T14:39:40.963Z,36.17
2018-03-27T14:42:08.588Z,39.70
2018-03-27T14:44:36.217Z,31.43
2018-03-27T14:47:03.798Z,36.97
2018-03-27T14:49:31.428Z,38.37
2018-03-27T14:51:59.059Z,37.83
2018-03-27T14:54:26.668Z,45.17
2018-03-27T14:56:54.300Z,47.30
2018-03-27T14:59:21.884Z,37.67
2018-03-27T15:01:49.467Z,39.97
2018-03-27T15:04:17.145Z,39.37
2018-03-27T15:06:44.738Z,35.30
2018-03-27T15:09:12.399Z,36.00
2018-03-27T15:11:40.014Z,37.77
2018-03-27T15:14:07.589Z,38.60
2018-03-27T15:16:35.182Z,36.23
2018-03-27T15:19:02.800Z,35.07
2018-03-27T15:21:30.397Z,37.83
2018-03-27T15:23:57.991Z,44.07
2018-03-27T15:26:25.606Z,46.23
2018-03-27T15:28:53.180Z,45.30
2018-03-27T15:31:20.770Z,49.57
2018-03-27T15:33:48.387Z,46.80
2018-03-27T15:36:15.984Z,45.23
2018-03-27T15:38:43.571Z,40.00
2018-03-27T15:41:11.198Z,44.50
2018-03-27T15:43:38.856Z,41.40
2018-03-27T15:46:06.515Z,60.73
2018-03-27T15:48:34.135Z,56.67
2018-03-27T15:51:01.738Z,22.57
2018-03-27T15:53:29.321Z,21.83
2018-03-27T15:55:56.938Z,30.77
2018-03-27T15:58:24.520Z,26.17
2018-03-27T16:00:52.134Z,25.13
2018-03-27T16:03:19.942Z,27.90
2018-03-27T16:05:47.570Z,30.43
2018-03-27T16:08:15.171Z,30.00
2018-03-27T16:10:42.800Z,36.50
2018-03-27T16:13:10.399Z,44.20
2018-03-27T16:15:37.984Z,43.97
2018-03-27T16:18:05.619Z,75.57
2018-03-27T16:20:33.283Z,39.80
2018-03-27T16:23:00.865Z,31.10
2018-03-27T16:25:28.523Z,52.77
2018-03-27T16:27:56.170Z,43.57
2018-03-27T16:30:23.754Z,37.43
2018-03-27T16:32:51.381Z,29.90
2018-03-27T16:35:18.963Z,33.20
2018-03-27T16:37:46.538Z,33.50
2018-03-27T16:40:14.162Z,31.43
2018-03-27T16:42:41.745Z,33.03
2018-03-27T16:45:09.325Z,41.47
2018-03-27T16:47:36.953Z,59.30
2018-03-27T16:50:04.538Z,73.97
2018-03-27T16:52:32.130Z,61.40
2018-03-27T16:54:59.777Z,64.90
2018-03-27T16:57:27.382Z,59.73
2018-03-27T16:59:54.983Z,41.47
2018-03-27T17:02:22.602Z,36.47
2018-03-27T17:04:50.166Z,68.90
2018-03-27T17:07:20.821Z,43.37
2018-03-27T17:09:48.444Z,55.70
2018-03-27T17:12:16.184Z,37.60
2018-03-27T17:14:43.757Z,33.73
2018-03-27T17:17:11.371Z,70.63
2018-03-27T17:19:38.951Z,71.37
2018-03-27T17:22:06.550Z,74.00
2018-03-27T17:24:34.164Z,66.17
2018-03-27T17:27:01.739Z,67.87
2018-03-27T17:29:29.316Z,70.30
2018-03-27T17:31:56.921Z,64.43
2018-03-27T17:34:24.619Z,68.10
2018-03-27T17:36:52.211Z,58.73
2018-03-27T17:39:19.832Z,53.07
2018-03-27T17:41:47.414Z,46.07
2018-03-27T17:44:15.707Z,46.70
2018-03-27T17:46:43.313Z,42.37
2018-03-27T17:49:10.898Z,47.10
2018-03-27T17:51:38.482Z,50.17
2018-03-27T17:54:06.288Z,59.13
2018-03-27T17:56:33.885Z,73.33
2018-03-27T17:59:01.486Z,85.50
2018-03-27T18:01:29.129Z,81.17
2018-03-27T18:03:56.708Z,59.03
2018-03-27T18:06:24.330Z,60.80
2018-03-27T18:08:51.984Z,53.63
2018-03-27T18:11:19.559Z,65.03
2018-03-27T18:13:47.160Z,62.77
2018-03-27T18:16:14.776Z,59.87
2018-03-27T18:18:42.397Z,67.13
2018-03-27T18:21:09.987Z,59.97
2018-03-27T18:23:37.596Z,41.97
2018-03-27T18:26:05.152Z,39.70
2018-03-27T18:28:32.715Z,34.30
2018-03-27T18:31:00.352Z,34.30
2018-03-27T18:33:27.929Z,35.90
2018-03-27T18:35:55.499Z,38.07
2018-03-27T18:38:23.100Z,47.00
2018-03-27T18:40:50.670Z,37.27
2018-03-27T18:43:18.238Z,35.47
2018-03-27T18:45:45.852Z,34.00
2018-03-27T18:48:13.414Z,45.57
2018-03-27T18:50:41.014Z,55.90
2018-03-27T18:53:08.628Z,40.07
2018-03-27T18:55:36.211Z,64.90
2018-03-27T18:58:03.790Z,39.30
2018-03-27T19:00:31.407Z,38.27
2018-03-27T19:02:59.019Z,39.50
2018-03-27T19:05:26.598Z,54.13
2018-03-27T19:07:54.250Z,44.37
2018-03-27T19:10:21.825Z,48.10
2018-03-27T19:12:49.394Z,48.90
2018-03-27T19:15:17.005Z,43.80
2018-03-27T19:17:44.583Z,93.57
2018-03-27T19:20:12.171Z,45.87
2018-03-27T19:22:39.782Z,40.90
2018-03-27T19:25:07.368Z,38.00
2018-03-27T19:27:34.958Z,42.50
2018-03-27T19:30:02.584Z,37.97
2018-03-27T19:32:30.175Z,37.57
2018-03-27T19:34:57.761Z,33.73
2018-03-27T19:37:25.386Z,36.70
2018-03-27T19:39:52.980Z,38.47
2018-03-27T19:42:20.629Z,44.97
2018-03-27T19:44:48.256Z,53.10
2018-03-27T19:47:15.938Z,57.03
2018-03-27T19:49:43.535Z,65.10
2018-03-27T19:52:11.183Z,105.37
2018-03-27T19:54:38.784Z,54.00
2018-03-27T19:57:06.383Z,51.07
2018-03-27T19:59:34.010Z,44.67
2018-03-27T20:02:01.723Z,46.23
2018-03-27T20:04:29.358Z,41.77
2018-03-27T20:06:56.981Z,43.40
2018-03-27T20:09:24.623Z,39.37
2018-03-27T20:11:52.198Z,38.93
2018-03-27T20:14:19.849Z,38.70
2018-03-27T20:16:47.456Z,40.20
2018-03-27T20:19:15.085Z,36.57
2018-03-27T20:21:42.720Z,60.10
2018-03-27T20:24:10.314Z,51.70
2018-03-27T20:26:37.908Z,47.00
2018-03-27T20:29:05.535Z,34.50
2018-03-27T20:31:33.165Z,45.67
2018-03-27T20:34:00.779Z,59.67
2018-03-27T20:36:28.368Z,55.50
2018-03-27T20:38:56.003Z,60.30
2018-03-27T20:41:23.602Z,63.10
2018-03-27T20:43:51.199Z,59.40
2018-03-27T20:46:18.818Z,57.43
2018-03-27T20:48:46.465Z,67.50
2018-03-27T20:51:14.062Z,64.87
2018-03-27T20:53:41.694Z,71.03
2018-03-27T20:56:09.283Z,60.80
2018-03-27T20:58:36.872Z,59.03
2018-03-27T21:01:04.507Z,62.60
2018-03-27T21:03:32.102Z,61.70
2018-03-27T21:05:59.694Z,71.70
2018-03-27T21:08:27.335Z,82.43
2018-03-27T21:10:54.938Z,90.30
2018-03-27T21:13:22.532Z,73.40
2018-03-27T21:15:50.199Z,68.33
2018-03-27T21:18:17.835Z,81.27
2018-03-27T21:20:45.439Z,92.97
2018-03-27T21:23:13.072Z,103.57
2018-03-27T21:25:40.670Z,71.00
2018-03-27T21:28:08.260Z,66.30
2018-03-27T21:30:35.884Z,67.43
2018-03-27T21:33:03.478Z,58.47
2018-03-27T21:35:31.435Z,58.07
2018-03-27T21:37:59.057Z,67.70
2018-03-27T21:40:26.641Z,54.13
2018-03-27T21:42:54.241Z,58.23
2018-03-27T21:45:21.883Z,61.20
2018-03-27T21:47:49.496Z,53.37
2018-03-27T21:50:17.094Z,51.60
2018-03-27T21:52:44.753Z,76.00
2018-03-27T21:55:12.354Z,51.43
2018-03-27T21:57:39.952Z,74.90
2018-03-27T22:00:09.257Z,90.37
2018-03-27T22:02:36.844Z,68.00
2018-03-27T22:05:04.436Z,69.67
2018-03-27T22:07:32.046Z,82.77
2018-03-27T22:09:59.650Z,90.37
2018-03-27T22:12:27.240Z,62.67
2018-03-27T22:14:54.874Z,50.33
2018-03-27T22:17:22.468Z,56.50
2018-03-27T22:19:50.070Z,57.07
2018-03-27T22:22:17.709Z,42.20
2018-03-27T22:24:45.306Z,34.83
2018-03-27T22:27:12.915Z,40.97
2018-03-27T22:29:40.545Z,42.50
2018-03-27T22:32:08.145Z,51.50
2018-03-27T22:34:35.744Z,54.43
2018-03-27T22:37:03.371Z,55.10
2018-03-27T22:39:30.980Z,86.43
2018-03-27T22:41:58.567Z,58.37
2018-03-27T22:44:26.202Z,63.80
2018-03-27T22:46:53.782Z,72.77
2018-03-27T22:49:21.397Z,77.03
2018-03-27T22:51:49.057Z,76.83
2018-03-27T22:54:16.660Z,88.20
2018-03-27T22:56:44.258Z,87.87
2018-03-27T22:59:11.884Z,82.80
2018-03-27T23:01:39.482Z,100.23
2018-03-27T23:04:07.082Z,102.10
2018-03-27T23:06:34.750Z,73.60
2018-03-27T23:09:02.337Z,65.53
2018-03-27T23:11:29.922Z,72.50
2018-03-27T23:13:57.546Z,62.90
2018-03-27T23:16:25.180Z,69.63
2018-03-27T23:18:52.814Z,69.83
2018-03-27T23:21:20.498Z,80.40
2018-03-27T23:23:48.094Z,54.20
2018-03-27T23:26:15.690Z,70.70
2018-03-27T23:28:43.327Z,75.00
2018-03-27T23:31:10.916Z,54.80
2018-03-27T23:33:38.511Z,49.43
2018-03-27T23:36:06.167Z,26.63
2018-03-27T23:38:33.824Z,36.53
2018-03-27T23:41:01.438Z,19.33
2018-03-27T23:43:29.055Z,27.73
2018-03-27T23:45:56.673Z,31.97
2018-03-27T23:48:24.262Z,40.60
2018-03-27T23:50:51.918Z,38.43
2018-03-27T23:53:19.515Z,39.80
2018-03-27T23:55:47.115Z,38.63
2018-03-27T23:58:14.751Z,44.43
